createdAt,value
2023-05-15T00:02:13.305Z,48.81
2023-05-15T00:04:40.631Z,46.20
2023-05-15T00:07:07.987Z,48.85
2023-05-15T00:09:34.752Z,48.30
2023-05-15T00:12:01.778Z,44.80
2023-05-15T00:14:28.544Z,45.60
2023-05-15T00:16:55.723Z,47.53
2023-05-15T00:19:22.948Z,49.75
2023-05-15T00:21:50.050Z,45.96
2023-05-15T00:24:16.933Z,44.57
2023-05-15T00:26:43.655Z,45.61
2023-05-15T00:29:10.725Z,48.07
2023-05-15T00:31:39.543Z,45.92
2023-05-15T00:34:06.519Z,48.67
2023-05-15T00:36:33.734Z,47.47
2023-05-15T00:39:00.653Z,48.79
2023-05-15T00:41:28.884Z,47.67
2023-05-15T00:43:56.105Z,48.97
2023-05-15T00:46:24.824Z,51.43
2023-05-15T00:48:52.149Z,50.35
2023-05-15T00:51:18.898Z,48.50
2023-05-15T00:53:45.984Z,50.17
2023-05-15T00:56:12.836Z,47.21
2023-05-15T00:58:40.103Z,51.96
2023-05-15T01:01:08.493Z,50.58
2023-05-15T01:03:37.466Z,48.01
2023-05-15T01:06:04.477Z,47.08
2023-05-15T01:08:47.336Z,47.57
2023-05-15T01:11:16.200Z,51.69
2023-05-15T01:13:43.882Z,48.12
2023-05-15T01:16:11.288Z,49.20
2023-05-15T01:18:39.013Z,49.76
2023-05-15T01:21:40.966Z,47.57
2023-05-15T01:24:45.697Z,48.22
2023-05-15T01:27:25.272Z,45.47
2023-05-15T01:30:12.597Z,48.05
2023-05-15T01:32:51.199Z,50.38
2023-05-15T01:35:28.619Z,49.02
2023-05-15T01:38:15.635Z,47.99
2023-05-15T01:40:44.979Z,46.67
2023-05-15T01:43:14.222Z,46.01
2023-05-15T01:45:43.180Z,45.12
2023-05-15T01:48:13.211Z,46.70
2023-05-15T01:50:43.060Z,48.28
2023-05-15T01:53:11.406Z,47.33
2023-05-15T01:55:40.273Z,50.10
2023-05-15T01:58:07.377Z,50.04
2023-05-15T02:00:35.919Z,46.48
2023-05-15T02:03:05.951Z,48.29
2023-05-15T02:05:34.648Z,46.68
2023-05-15T02:08:03.652Z,47.21
2023-05-15T02:10:31.955Z,46.43
2023-05-15T02:13:00.102Z,46.33
2023-05-15T02:15:28.411Z,49.41
2023-05-15T02:17:55.593Z,46.22
2023-05-15T02:20:22.494Z,45.81
2023-05-15T02:22:49.689Z,47.31
2023-05-15T02:25:16.437Z,50.96
2023-05-15T02:27:53.766Z,53.09
2023-05-15T02:30:33.204Z,49.95
2023-05-15T02:33:34.921Z,56.60
2023-05-15T02:36:16.958Z,49.92
2023-05-15T02:38:53.164Z,50.07
2023-05-15T02:41:22.032Z,51.58
2023-05-15T02:43:53.163Z,46.22
2023-05-15T02:46:21.740Z,47.27
2023-05-15T02:48:49.352Z,48.37
2023-05-15T02:51:16.135Z,48.02
2023-05-15T02:53:43.279Z,52.85
2023-05-15T02:56:10.338Z,48.49
2023-05-15T02:58:39.340Z,53.61
2023-05-15T03:01:06.266Z,49.17
2023-05-15T03:03:33.417Z,51.73
2023-05-15T03:06:01.113Z,50.87
2023-05-15T03:08:28.808Z,47.96
2023-05-15T03:10:55.756Z,46.80
2023-05-15T03:13:22.971Z,50.75
2023-05-15T03:15:50.076Z,48.73
2023-05-15T03:18:19.138Z,47.48
2023-05-15T03:20:48.532Z,48.29
2023-05-15T03:23:15.510Z,50.34
2023-05-15T03:25:42.370Z,47.96
2023-05-15T03:28:09.881Z,50.15
2023-05-15T03:30:36.598Z,47.89
2023-05-15T03:33:04.160Z,48.27
2023-05-15T03:35:32.620Z,47.85
2023-05-15T03:37:59.418Z,49.11
2023-05-15T03:40:26.193Z,50.28
2023-05-15T03:42:53.867Z,48.15
2023-05-15T03:45:21.324Z,49.02
2023-05-15T03:47:49.277Z,50.20
2023-05-15T03:50:16.390Z,45.93
2023-05-15T03:52:43.328Z,49.37
2023-05-15T03:55:10.543Z,50.71
2023-05-15T03:57:37.418Z,50.60
2023-05-15T04:00:10.228Z,50.30
2023-05-15T04:02:41.477Z,50.29
2023-05-15T04:05:09.634Z,47.87
2023-05-15T04:07:37.296Z,52.94
2023-05-15T04:10:04.645Z,50.65
2023-05-15T04:12:35.585Z,47.76
2023-05-15T04:15:15.710Z,49.88
2023-05-15T04:17:43.497Z,48.18
2023-05-15T04:20:14.326Z,47.94
2023-05-15T04:22:42.680Z,47.43
2023-05-15T04:25:11.067Z,45.62
2023-05-15T04:27:38.770Z,52.63
2023-05-15T04:30:06.916Z,50.24
2023-05-15T04:32:34.277Z,53.71
2023-05-15T04:35:01.469Z,50.35
2023-05-15T04:37:29.007Z,50.72
2023-05-15T04:39:55.813Z,50.82
2023-05-15T04:42:22.539Z,48.83
2023-05-15T04:44:49.660Z,50.29
2023-05-15T04:47:16.769Z,49.08
2023-05-15T04:49:43.560Z,48.35
2023-05-15T04:52:10.732Z,47.02
2023-05-15T04:54:37.452Z,48.94
2023-05-15T04:57:04.646Z,51.60
2023-05-15T04:59:31.452Z,46.91
2023-05-15T05:01:58.465Z,49.38
2023-05-15T05:04:26.264Z,51.92
2023-05-15T05:06:52.967Z,46.99
2023-05-15T05:09:20.169Z,46.18
2023-05-15T05:11:47.577Z,46.29
2023-05-15T05:14:15.715Z,46.66
2023-05-15T05:16:45.171Z,46.86
2023-05-15T05:19:12.307Z,47.07
2023-05-15T05:21:39.528Z,48.71
2023-05-15T05:24:06.360Z,49.57
2023-05-15T05:26:33.090Z,52.13
2023-05-15T05:28:59.809Z,49.53
2023-05-15T05:31:26.586Z,47.11
2023-05-15T05:33:53.378Z,52.76
2023-05-15T05:36:20.485Z,47.24
2023-05-15T05:38:47.256Z,44.43
2023-05-15T05:41:14.048Z,47.41
2023-05-15T05:43:41.283Z,46.85
2023-05-15T05:46:08.089Z,48.61
2023-05-15T05:48:35.124Z,49.37
2023-05-15T05:51:02.029Z,49.73
2023-05-15T05:53:28.884Z,49.45
2023-05-15T05:55:56.772Z,49.22
2023-05-15T05:58:25.940Z,50.12
2023-05-15T06:00:53.763Z,50.34
2023-05-15T06:03:21.368Z,47.67
2023-05-15T06:05:48.757Z,49.94
2023-05-15T06:08:15.896Z,48.69
2023-05-15T06:10:42.821Z,52.55
2023-05-15T06:13:10.279Z,51.45
2023-05-15T06:15:37.520Z,49.26
2023-05-15T06:18:04.531Z,48.25
2023-05-15T06:20:31.460Z,49.56
2023-05-15T06:22:58.182Z,51.15
2023-05-15T06:25:25.672Z,50.55
2023-05-15T06:27:52.365Z,49.21
2023-05-15T06:30:19.084Z,48.78
2023-05-15T06:32:46.178Z,50.53
2023-05-15T06:35:13.125Z,50.35
2023-05-15T06:37:40.701Z,49.75
2023-05-15T06:40:08.015Z,51.22
2023-05-15T06:42:34.816Z,48.25
2023-05-15T06:45:01.678Z,45.72
2023-05-15T06:47:28.505Z,48.17
2023-05-15T06:49:55.914Z,45.60
2023-05-15T06:52:22.687Z,45.32
2023-05-15T06:54:49.725Z,44.76
2023-05-15T06:57:16.512Z,46.23
2023-05-15T06:59:43.469Z,45.63
2023-05-15T07:02:11.084Z,44.74
2023-05-15T07:04:37.913Z,45.88
2023-05-15T07:07:05.098Z,45.83
2023-05-15T07:09:31.893Z,45.33
2023-05-15T07:11:58.667Z,46.06
2023-05-15T07:14:26.167Z,44.28
2023-05-15T07:16:52.921Z,44.82
2023-05-15T07:19:22.565Z,45.47
2023-05-15T07:21:49.315Z,46.91
2023-05-15T07:24:16.022Z,44.02
2023-05-15T07:26:54.259Z,44.18
2023-05-15T07:29:26.271Z,47.27
2023-05-15T07:31:53.554Z,44.17
2023-05-15T07:34:20.881Z,43.96
2023-05-15T07:36:47.523Z,46.55
2023-05-15T07:39:14.429Z,44.94
2023-05-15T07:41:41.440Z,43.53
2023-05-15T07:44:08.353Z,45.86
2023-05-15T07:46:35.579Z,46.61
2023-05-15T07:49:03.583Z,42.55
2023-05-15T07:51:30.469Z,44.03
2023-05-15T07:53:57.899Z,46.52
2023-05-15T07:56:25.243Z,43.01
2023-05-15T07:58:54.144Z,47.33
2023-05-15T08:01:20.904Z,44.38
2023-05-15T08:03:47.748Z,42.13
2023-05-15T08:06:14.913Z,41.35
2023-05-15T08:08:42.799Z,40.32
2023-05-15T08:11:09.535Z,42.50
2023-05-15T08:13:36.697Z,41.37
2023-05-15T08:16:03.815Z,41.71
2023-05-15T08:18:30.790Z,40.20
2023-05-15T08:20:58.686Z,43.94
2023-05-15T08:23:26.696Z,41.09
2023-05-15T08:25:53.537Z,40.90
2023-05-15T08:28:20.285Z,43.88
2023-05-15T08:30:47.332Z,39.59
2023-05-15T08:33:14.321Z,38.08
2023-05-15T08:35:42.196Z,36.84
2023-05-15T08:38:09.193Z,36.68
2023-05-15T08:40:39.812Z,38.10
2023-05-15T08:43:15.767Z,39.87
2023-05-15T08:45:43.916Z,36.33
2023-05-15T08:48:16.328Z,35.97
2023-05-15T08:50:44.616Z,37.58
2023-05-15T08:53:13.685Z,35.17
2023-05-15T08:55:42.045Z,36.98
2023-05-15T08:58:09.807Z,37.70
2023-05-15T09:00:37.723Z,36.91
2023-05-15T09:03:05.116Z,39.94
2023-05-15T09:05:32.147Z,35.76
2023-05-15T09:08:02.148Z,36.07
2023-05-15T09:10:29.878Z,32.05
2023-05-15T09:12:58.493Z,32.96
2023-05-15T09:15:25.757Z,36.55
2023-05-15T09:17:53.290Z,35.39
2023-05-15T09:20:29.979Z,37.13
2023-05-15T09:22:58.820Z,35.98
2023-05-15T09:25:39.853Z,38.04
2023-05-15T09:28:09.032Z,37.42
2023-05-15T09:30:39.426Z,38.82
2023-05-15T09:33:06.666Z,36.85
2023-05-15T09:35:39.169Z,34.87
2023-05-15T09:38:12.462Z,33.96
2023-05-15T09:40:43.318Z,37.64
2023-05-15T09:43:12.656Z,38.22
2023-05-15T09:45:39.538Z,38.99
2023-05-15T09:48:08.251Z,38.27
2023-05-15T09:50:37.217Z,42.86
2023-05-15T09:53:05.236Z,43.70
2023-05-15T09:55:36.205Z,40.62
2023-05-15T09:58:13.109Z,42.74
2023-05-15T10:00:47.264Z,42.45
2023-05-15T10:03:15.453Z,45.49
2023-05-15T10:05:44.486Z,44.30
2023-05-15T10:08:12.459Z,41.09
2023-05-15T10:10:39.823Z,44.13
2023-05-15T10:13:08.517Z,42.84
2023-05-15T10:15:35.770Z,41.69
2023-05-15T10:18:05.000Z,40.66
2023-05-15T10:20:35.656Z,36.52
2023-05-15T10:23:05.145Z,35.36
2023-05-15T10:25:54.422Z,32.73
2023-05-15T10:28:22.635Z,33.82
2023-05-15T10:30:49.580Z,35.56
2023-05-15T10:33:16.985Z,33.95
2023-05-15T10:35:46.960Z,35.15
2023-05-15T10:38:15.962Z,30.29
2023-05-15T10:40:44.562Z,30.86
2023-05-15T10:43:14.691Z,31.56
2023-05-15T10:45:41.957Z,26.63
2023-05-15T10:48:12.239Z,26.99
2023-05-15T10:50:40.189Z,26.67
2023-05-15T10:53:09.286Z,34.54
2023-05-15T10:55:36.981Z,32.30
2023-05-15T10:58:09.719Z,38.22
2023-05-15T11:00:44.862Z,38.59
2023-05-15T11:03:16.697Z,41.01
2023-05-15T11:06:13.579Z,41.18
2023-05-15T11:08:45.357Z,41.82
2023-05-15T11:12:00.509Z,40.97
2023-05-15T11:14:29.706Z,39.86
2023-05-15T11:16:58.743Z,43.61
2023-05-15T11:19:28.742Z,42.09
2023-05-15T11:22:17.228Z,41.27
2023-05-15T11:24:54.660Z,42.04
2023-05-15T11:27:31.961Z,46.39
2023-05-15T11:30:05.008Z,42.54
2023-05-15T11:32:40.355Z,42.63
2023-05-15T11:35:22.873Z,41.91
2023-05-15T11:37:54.917Z,44.28
2023-05-15T11:40:23.364Z,42.53
2023-05-15T11:43:01.605Z,42.89
2023-05-15T11:45:31.343Z,42.69
2023-05-15T11:48:02.505Z,46.56
2023-05-15T11:50:32.582Z,45.36
2023-05-15T11:53:04.127Z,43.80
2023-05-15T11:55:33.320Z,47.84
2023-05-15T11:58:01.533Z,43.64
2023-05-15T12:00:29.177Z,48.93
2023-05-15T12:02:56.691Z,44.83
2023-05-15T12:05:24.569Z,43.46
2023-05-15T12:07:51.963Z,42.32
2023-05-15T12:10:18.788Z,40.89
2023-05-15T12:12:46.626Z,43.08
2023-05-15T12:15:15.578Z,41.31
2023-05-15T12:17:44.130Z,40.67
2023-05-15T12:20:16.078Z,40.85
2023-05-15T12:22:42.828Z,40.32
2023-05-15T12:25:12.482Z,43.58
2023-05-15T12:27:40.061Z,45.79
2023-05-15T12:30:07.936Z,44.15
2023-05-15T12:32:36.630Z,43.60
2023-05-15T12:35:04.957Z,43.01
2023-05-15T12:37:36.001Z,45.14
2023-05-15T12:40:11.741Z,49.15
2023-05-15T12:42:39.915Z,44.68
2023-05-15T12:45:14.864Z,44.68
2023-05-15T12:47:44.171Z,47.48
2023-05-15T12:50:16.378Z,48.97
2023-05-15T12:53:03.571Z,47.40
2023-05-15T12:55:35.340Z,45.39
2023-05-15T12:58:07.207Z,44.79
2023-05-15T13:00:36.231Z,46.05
2023-05-15T13:03:04.292Z,47.09
2023-05-15T13:05:35.682Z,47.03
2023-05-15T13:08:04.286Z,47.15
2023-05-15T13:10:36.784Z,50.26
2023-05-15T13:13:03.866Z,45.60
2023-05-15T13:15:35.411Z,46.17
2023-05-15T13:18:11.412Z,47.24
2023-05-15T13:20:46.650Z,45.38
2023-05-15T13:23:19.183Z,45.06
2023-05-15T13:25:48.552Z,45.89
2023-05-15T13:28:16.370Z,46.23
2023-05-15T13:30:43.404Z,45.57
2023-05-15T13:33:11.928Z,46.75
2023-05-15T13:35:40.258Z,45.12
2023-05-15T13:38:10.354Z,45.84
2023-05-15T13:40:38.316Z,44.92
2023-05-15T13:43:06.842Z,46.01
2023-05-15T13:45:34.000Z,49.95
2023-05-15T13:48:01.861Z,47.12
2023-05-15T13:50:28.786Z,45.37
2023-05-15T13:52:56.104Z,43.57
2023-05-15T13:55:23.401Z,43.92
2023-05-15T13:57:51.371Z,45.28
2023-05-15T14:00:19.316Z,40.52
2023-05-15T14:02:46.948Z,44.73
2023-05-15T14:05:15.808Z,40.50
2023-05-15T14:07:42.863Z,39.55
2023-05-15T14:10:11.356Z,40.92
2023-05-15T14:12:38.504Z,37.93
2023-05-15T14:15:05.972Z,44.91
2023-05-15T14:17:33.010Z,42.63
2023-05-15T14:20:00.979Z,44.03
2023-05-15T14:22:27.798Z,42.64
2023-05-15T14:24:54.876Z,42.88
2023-05-15T14:27:21.596Z,44.16
2023-05-15T14:29:49.490Z,40.93
2023-05-15T14:32:17.523Z,44.14
2023-05-15T14:34:44.741Z,45.55
2023-05-15T14:37:12.607Z,44.82
2023-05-15T14:39:39.411Z,45.49
2023-05-15T14:42:06.945Z,45.08
2023-05-15T14:44:34.822Z,45.39
2023-05-15T14:47:10.396Z,45.35
2023-05-15T14:49:37.895Z,42.83
2023-05-15T14:52:08.226Z,37.43
2023-05-15T14:54:35.916Z,38.92
2023-05-15T14:57:02.693Z,40.69
2023-05-15T14:59:29.686Z,41.04
2023-05-15T15:01:56.761Z,40.03
2023-05-15T15:04:23.553Z,38.78
2023-05-15T15:06:50.467Z,36.74
2023-05-15T15:09:21.444Z,39.19
2023-05-15T15:11:48.936Z,39.54
2023-05-15T15:14:16.809Z,41.04
2023-05-15T15:16:44.344Z,39.57
2023-05-15T15:19:11.685Z,43.42
2023-05-15T15:21:38.596Z,44.86
2023-05-15T15:24:05.835Z,41.85
2023-05-15T15:26:33.566Z,40.62
2023-05-15T15:29:02.125Z,37.77
2023-05-15T15:31:30.308Z,41.94
2023-05-15T15:33:58.907Z,38.68
2023-05-15T15:36:26.396Z,41.40
2023-05-15T15:38:53.318Z,41.56
2023-05-15T15:41:23.661Z,42.46
2023-05-15T15:43:50.731Z,41.75
2023-05-15T15:46:18.591Z,42.57
2023-05-15T15:48:45.526Z,46.04
2023-05-15T15:51:12.568Z,47.32
2023-05-15T15:53:39.292Z,48.79
2023-05-15T15:56:07.639Z,48.20
2023-05-15T15:58:34.518Z,45.56
2023-05-15T16:01:03.706Z,47.00
2023-05-15T16:03:32.285Z,44.06
2023-05-15T16:06:00.296Z,46.77
2023-05-15T16:08:27.536Z,44.34
2023-05-15T16:10:55.007Z,46.70
2023-05-15T16:13:21.847Z,47.30
2023-05-15T16:15:49.725Z,45.75
2023-05-15T16:18:17.685Z,48.63
2023-05-15T16:20:44.556Z,49.07
2023-05-15T16:23:15.060Z,47.66
2023-05-15T16:25:43.325Z,44.34
2023-05-15T16:28:10.271Z,44.59
2023-05-15T16:30:48.134Z,43.76
2023-05-15T16:33:18.816Z,48.63
2023-05-15T16:35:47.619Z,44.57
2023-05-15T16:38:14.718Z,44.05
2023-05-15T16:40:41.626Z,46.68
2023-05-15T16:43:08.501Z,44.37
2023-05-15T16:45:35.501Z,49.67
2023-05-15T16:48:03.238Z,43.62
2023-05-15T16:50:33.057Z,45.22
2023-05-15T16:52:59.887Z,42.94
2023-05-15T16:55:26.938Z,43.96
2023-05-15T16:57:54.073Z,45.71
2023-05-15T17:00:21.535Z,44.44
2023-05-15T17:02:50.155Z,46.51
2023-05-15T17:05:18.096Z,44.56
2023-05-15T17:07:45.304Z,45.30
2023-05-15T17:10:13.237Z,43.89
2023-05-15T17:12:40.464Z,45.93
2023-05-15T17:15:07.895Z,43.14
2023-05-15T17:17:34.920Z,46.39
2023-05-15T17:20:03.589Z,45.32
2023-05-15T17:22:30.593Z,45.41
2023-05-15T17:24:57.538Z,45.73
2023-05-15T17:27:24.614Z,46.87
2023-05-15T17:29:52.179Z,44.46
2023-05-15T17:32:20.663Z,44.95
2023-05-15T17:34:48.366Z,45.60
2023-05-15T17:37:15.268Z,43.24
2023-05-15T17:39:42.770Z,46.39
2023-05-15T17:42:09.774Z,44.32
2023-05-15T17:44:37.177Z,47.39
2023-05-15T17:47:05.906Z,47.59
2023-05-15T17:49:34.671Z,45.43
2023-05-15T17:52:01.494Z,42.44
2023-05-15T17:54:28.859Z,47.66
2023-05-15T17:56:55.598Z,44.99
2023-05-15T17:59:22.629Z,44.76
2023-05-15T18:01:51.190Z,43.31
2023-05-15T18:04:18.890Z,45.13
2023-05-15T18:06:45.695Z,44.73
2023-05-15T18:09:12.902Z,46.65
2023-05-15T18:11:39.692Z,44.80
2023-05-15T18:14:06.714Z,44.91
2023-05-15T18:16:35.120Z,48.13
2023-05-15T18:19:01.919Z,45.91
2023-05-15T18:21:29.114Z,45.47
2023-05-15T18:23:56.104Z,44.12
2023-05-15T18:26:23.099Z,43.99
2023-05-15T18:28:50.569Z,44.35
2023-05-15T18:31:17.748Z,46.59
2023-05-15T18:33:45.816Z,46.01
2023-05-15T18:36:12.693Z,45.23
2023-05-15T18:38:39.743Z,43.96
2023-05-15T18:41:06.695Z,46.47
2023-05-15T18:43:34.320Z,44.62
2023-05-15T18:46:01.200Z,46.50
2023-05-15T18:48:28.538Z,45.18
2023-05-15T18:50:55.921Z,46.59
2023-05-15T18:53:23.122Z,49.16
2023-05-15T18:55:50.787Z,46.37
2023-05-15T18:58:17.635Z,44.80
2023-05-15T19:00:44.981Z,45.06
2023-05-15T19:03:12.301Z,45.32
2023-05-15T19:05:39.096Z,46.79
2023-05-15T19:08:07.326Z,47.15
2023-05-15T19:10:34.855Z,46.57
2023-05-15T19:13:01.985Z,44.37
2023-05-15T19:15:28.904Z,45.48
2023-05-15T19:17:55.964Z,45.81
2023-05-15T19:20:23.168Z,44.09
2023-05-15T19:22:51.330Z,43.37
2023-05-15T19:25:20.147Z,42.88
2023-05-15T19:27:46.938Z,43.73
2023-05-15T19:30:14.114Z,44.94
2023-05-15T19:32:41.291Z,47.28
2023-05-15T19:35:09.081Z,45.03
2023-05-15T19:37:36.548Z,45.19
2023-05-15T19:40:05.157Z,45.24
2023-05-15T19:42:31.946Z,47.25
2023-05-15T19:44:58.932Z,43.84
2023-05-15T19:47:26.882Z,44.58
2023-05-15T19:49:54.083Z,47.40
2023-05-15T19:52:21.587Z,46.94
2023-05-15T19:54:48.679Z,45.97
2023-05-15T19:57:16.323Z,44.80
2023-05-15T19:59:43.086Z,44.33
2023-05-15T20:02:11.230Z,44.01
2023-05-15T20:04:39.120Z,47.54
2023-05-15T20:07:07.226Z,46.38
2023-05-15T20:09:36.770Z,44.68
2023-05-15T20:12:07.695Z,42.08
2023-05-15T20:14:35.172Z,43.80
2023-05-15T20:17:02.132Z,43.98
2023-05-15T20:19:31.511Z,44.72
2023-05-15T20:21:58.287Z,45.71
2023-05-15T20:24:26.359Z,44.05
2023-05-15T20:26:53.228Z,44.91
2023-05-15T20:29:21.331Z,43.53
2023-05-15T20:31:48.208Z,50.82
2023-05-15T20:34:15.104Z,48.47
2023-05-15T20:36:42.534Z,48.96
2023-05-15T20:39:09.884Z,45.82
2023-05-15T20:41:37.698Z,46.58
2023-05-15T20:44:05.297Z,45.67
2023-05-15T20:46:32.290Z,44.69
2023-05-15T20:48:59.230Z,43.80
2023-05-15T20:51:26.199Z,45.43
2023-05-15T20:53:53.114Z,45.01
2023-05-15T20:56:20.703Z,45.25
2023-05-15T20:58:47.546Z,43.94
2023-05-15T21:01:16.156Z,44.66
2023-05-15T21:03:43.333Z,46.73
2023-05-15T21:06:10.248Z,43.99
2023-05-15T21:08:37.157Z,45.75
2023-05-15T21:11:03.918Z,46.30
2023-05-15T21:13:30.993Z,47.05
2023-05-15T21:15:57.701Z,45.52
2023-05-15T21:18:25.018Z,45.71
2023-05-15T21:20:53.018Z,44.93
2023-05-15T21:23:21.792Z,44.52
2023-05-15T21:25:48.480Z,47.64
2023-05-15T21:28:15.961Z,45.31
2023-05-15T21:30:42.952Z,46.11
2023-05-15T21:33:10.246Z,45.67
2023-05-15T21:35:38.126Z,44.73
2023-05-15T21:38:06.103Z,44.00
2023-05-15T21:40:33.077Z,45.55
2023-05-15T21:43:00.207Z,45.61
2023-05-15T21:45:26.920Z,46.18
2023-05-15T21:47:53.775Z,45.57
2023-05-15T21:50:21.086Z,43.55
2023-05-15T21:52:51.153Z,43.76
2023-05-15T21:55:18.596Z,46.13
2023-05-15T21:57:45.476Z,45.91
2023-05-15T22:00:12.516Z,47.63
2023-05-15T22:02:39.285Z,47.30
2023-05-15T22:05:07.349Z,47.42
2023-05-15T22:07:34.081Z,45.75
2023-05-15T22:10:03.132Z,47.26
2023-05-15T22:12:30.365Z,44.44
2023-05-15T22:14:59.461Z,45.58
2023-05-15T22:17:29.203Z,45.75
2023-05-15T22:20:07.901Z,44.35
2023-05-15T22:22:36.016Z,45.46
2023-05-15T22:25:03.421Z,45.22
2023-05-15T22:27:30.631Z,43.87
2023-05-15T22:29:57.626Z,44.88
2023-05-15T22:32:24.717Z,46.08
2023-05-15T22:34:51.689Z,45.24
2023-05-15T22:37:18.446Z,47.75
2023-05-15T22:39:45.850Z,46.74
2023-05-15T22:42:12.616Z,46.20
2023-05-15T22:44:39.346Z,46.87
2023-05-15T22:47:06.801Z,47.14
2023-05-15T22:49:33.861Z,44.34
2023-05-15T22:52:00.968Z,44.53
2023-05-15T22:54:27.686Z,44.21
2023-05-15T22:56:54.751Z,44.88
2023-05-15T22:59:22.039Z,45.59
2023-05-15T23:01:49.721Z,48.23
2023-05-15T23:04:17.660Z,46.70
2023-05-15T23:06:44.559Z,45.80
2023-05-15T23:09:11.841Z,46.21
2023-05-15T23:11:38.796Z,45.15
2023-05-15T23:14:05.755Z,47.05
2023-05-15T23:16:32.474Z,46.17
2023-05-15T23:18:59.762Z,45.85
2023-05-15T23:21:27.065Z,44.95
2023-05-15T23:23:53.892Z,44.89
2023-05-15T23:26:20.959Z,45.69
2023-05-15T23:28:47.777Z,44.60
2023-05-15T23:31:14.675Z,43.48
2023-05-15T23:33:41.574Z,44.70
2023-05-15T23:36:08.938Z,44.50
2023-05-15T23:38:36.176Z,45.71
2023-05-15T23:41:03.026Z,45.09
2023-05-15T23:43:29.842Z,44.56
2023-05-15T23:45:56.675Z,45.34
2023-05-15T23:48:23.774Z,43.41
2023-05-15T23:50:52.440Z,45.95
2023-05-15T23:53:19.321Z,44.75
2023-05-15T23:55:46.099Z,44.12
2023-05-15T23:58:12.962Z,44.67
